createdAt,value
2023-05-06T00:00:30.732Z,72.00
2023-05-06T00:03:00.362Z,72.00
2023-05-06T00:05:32.598Z,71.90
2023-05-06T00:08:02.054Z,71.80
2023-05-06T00:10:31.229Z,71.80
2023-05-06T00:13:01.977Z,71.90
2023-05-06T00:15:32.314Z,71.90
2023-05-06T00:18:02.494Z,72.00
2023-05-06T00:20:32.340Z,72.10
2023-05-06T00:23:01.568Z,72.00
2023-05-06T00:25:30.735Z,72.10
2023-05-06T00:28:01.726Z,72.00
2023-05-06T00:30:31.373Z,72.30
2023-05-06T00:33:00.746Z,72.40
2023-05-06T00:35:30.754Z,72.30
2023-05-06T00:38:09.286Z,72.40
2023-05-06T00:40:42.397Z,72.50
2023-05-06T00:43:13.630Z,72.30
2023-05-06T00:45:46.588Z,72.20
2023-05-06T00:48:24.616Z,72.10
2023-05-06T00:50:54.028Z,72.00
2023-05-06T00:53:41.281Z,72.10
2023-05-06T00:56:36.794Z,72.00
2023-05-06T00:59:21.882Z,71.90
2023-05-06T01:01:58.428Z,71.90
2023-05-06T01:04:30.895Z,71.90
2023-05-06T01:07:11.181Z,72.10
2023-05-06T01:09:52.274Z,72.10
2023-05-06T01:12:39.386Z,72.20
2023-05-06T01:15:31.598Z,72.30
2023-05-06T01:18:30.006Z,72.30
2023-05-06T01:21:16.281Z,72.20
2023-05-06T01:23:58.654Z,72.30
2023-05-06T01:26:28.766Z,72.20
2023-05-06T01:29:00.551Z,72.30
2023-05-06T01:31:49.908Z,72.50
2023-05-06T01:34:31.366Z,72.80
2023-05-06T01:37:19.618Z,72.80
2023-05-06T01:39:51.673Z,72.90
2023-05-06T01:42:27.174Z,72.80
2023-05-06T01:45:04.085Z,72.90
2023-05-06T01:47:38.216Z,72.80
2023-05-06T01:50:09.552Z,72.80
2023-05-06T01:52:41.501Z,72.80
2023-05-06T01:55:22.634Z,72.50
2023-05-06T01:57:52.393Z,72.60
2023-05-06T02:00:22.036Z,72.70
2023-05-06T02:02:52.283Z,72.80
2023-05-06T02:05:21.785Z,72.90
2023-05-06T02:07:55.499Z,73.10
2023-05-06T02:10:26.437Z,72.90
2023-05-06T02:13:02.433Z,72.90
2023-05-06T02:15:32.263Z,72.90
2023-05-06T02:18:03.298Z,73.10
2023-05-06T02:20:32.667Z,73.20
2023-05-06T02:23:01.783Z,73.40
2023-05-06T02:25:32.529Z,73.40
2023-05-06T02:28:02.174Z,73.30
2023-05-06T02:30:32.341Z,73.20
2023-05-06T02:33:01.709Z,73.40
2023-05-06T02:35:31.002Z,73.40
2023-05-06T02:38:00.633Z,73.40
2023-05-06T02:40:30.896Z,73.20
2023-05-06T02:43:02.834Z,73.20
2023-05-06T02:45:32.222Z,73.40
2023-05-06T02:48:02.846Z,73.30
2023-05-06T02:50:32.513Z,73.30
2023-05-06T02:53:02.027Z,73.40
2023-05-06T02:55:32.214Z,73.40
2023-05-06T02:58:02.977Z,73.40
2023-05-06T03:00:32.438Z,73.40
2023-05-06T03:03:01.906Z,73.40
2023-05-06T03:05:31.282Z,73.50
2023-05-06T03:08:00.556Z,73.50
2023-05-06T03:10:30.258Z,73.70
2023-05-06T03:13:01.908Z,73.70
2023-05-06T03:15:32.099Z,73.70
2023-05-06T03:18:01.518Z,73.80
2023-05-06T03:20:31.479Z,73.70
2023-05-06T03:23:02.378Z,73.70
2023-05-06T03:25:32.453Z,73.60
2023-05-06T03:28:04.354Z,73.60
2023-05-06T03:30:35.003Z,73.60
2023-05-06T03:33:07.859Z,73.50
2023-05-06T03:35:37.706Z,73.50
2023-05-06T03:38:07.076Z,73.50
2023-05-06T03:40:59.297Z,73.50
2023-05-06T03:43:31.011Z,73.50
2023-05-06T03:46:03.149Z,73.50
2023-05-06T03:48:34.127Z,73.50
2023-05-06T03:51:03.444Z,73.60
2023-05-06T03:53:32.888Z,73.40
2023-05-06T03:56:02.625Z,74.20
2023-05-06T03:58:34.550Z,73.40
2023-05-06T04:01:05.047Z,73.40
2023-05-06T04:03:35.250Z,73.40
2023-05-06T04:06:05.390Z,73.50
2023-05-06T04:08:34.540Z,73.60
2023-05-06T04:11:06.103Z,73.70
2023-05-06T04:13:37.075Z,73.80
2023-05-06T04:16:11.213Z,73.80
2023-05-06T04:18:44.041Z,73.80
2023-05-06T04:21:17.225Z,73.90
2023-05-06T04:23:51.247Z,73.90
2023-05-06T04:26:24.906Z,73.90
2023-05-06T04:28:55.833Z,73.90
2023-05-06T04:31:25.503Z,74.00
2023-05-06T04:33:54.980Z,74.80
2023-05-06T04:36:27.030Z,74.10
2023-05-06T04:39:20.258Z,74.10
2023-05-06T04:41:51.184Z,74.00
2023-05-06T04:44:29.636Z,73.90
2023-05-06T04:46:59.752Z,73.90
2023-05-06T04:49:29.065Z,73.90
2023-05-06T04:51:58.686Z,73.90
2023-05-06T04:54:28.804Z,74.00
2023-05-06T04:56:58.275Z,74.10
2023-05-06T04:59:29.674Z,74.20
2023-05-06T05:01:59.153Z,74.30
2023-05-06T05:04:28.367Z,74.10
2023-05-06T05:06:58.665Z,74.10
2023-05-06T05:09:28.501Z,73.90
2023-05-06T05:11:58.600Z,73.80
2023-05-06T05:14:30.025Z,73.80
2023-05-06T05:16:59.869Z,73.60
2023-05-06T05:19:29.133Z,73.60
2023-05-06T05:21:58.858Z,73.50
2023-05-06T05:24:28.700Z,73.50
2023-05-06T05:26:58.975Z,73.50
2023-05-06T05:29:30.045Z,73.50
2023-05-06T05:32:01.323Z,73.50
2023-05-06T05:34:31.999Z,73.60
2023-05-06T05:37:03.103Z,73.70
2023-05-06T05:39:33.251Z,73.80
2023-05-06T05:42:03.386Z,73.90
2023-05-06T05:44:34.408Z,73.90
2023-05-06T05:47:04.737Z,73.60
2023-05-06T05:49:35.014Z,73.20
2023-05-06T05:52:05.476Z,73.00
2023-05-06T05:54:35.063Z,72.80
2023-05-06T05:57:04.708Z,72.80
2023-05-06T05:59:35.558Z,72.80
2023-05-06T06:02:07.916Z,72.50
2023-05-06T06:04:37.823Z,72.60
2023-05-06T06:07:07.334Z,72.70
2023-05-06T06:09:41.811Z,72.70
2023-05-06T06:12:11.448Z,72.60
2023-05-06T06:14:47.906Z,72.00
2023-05-06T06:17:21.084Z,71.80
2023-05-06T06:19:57.062Z,71.90
2023-05-06T06:22:26.335Z,71.80
2023-05-06T06:24:57.006Z,71.60
2023-05-06T06:27:26.327Z,71.20
2023-05-06T06:29:56.948Z,71.00
2023-05-06T06:32:26.436Z,70.70
2023-05-06T06:34:56.152Z,70.70
2023-05-06T06:37:26.173Z,70.70
2023-05-06T06:39:55.618Z,70.80
2023-05-06T06:42:25.597Z,70.70
2023-05-06T06:45:12.601Z,70.70
2023-05-06T06:47:42.198Z,70.60
2023-05-06T06:50:12.385Z,70.80
2023-05-06T06:52:41.650Z,70.50
2023-05-06T06:55:11.520Z,71.60
2023-05-06T06:57:41.650Z,70.40
2023-05-06T07:00:13.761Z,70.50
2023-05-06T07:02:43.059Z,70.50
2023-05-06T07:05:13.225Z,70.20
2023-05-06T07:07:42.862Z,69.80
2023-05-06T07:10:12.380Z,69.70
2023-05-06T07:12:41.673Z,69.60
2023-05-06T07:15:13.063Z,69.30
2023-05-06T07:17:42.838Z,69.20
2023-05-06T07:20:13.366Z,69.00
2023-05-06T07:22:43.590Z,69.00
2023-05-06T07:25:13.345Z,69.20
2023-05-06T07:27:42.509Z,69.30
2023-05-06T07:30:13.782Z,68.90
2023-05-06T07:32:43.511Z,68.80
2023-05-06T07:35:13.073Z,68.80
2023-05-06T07:37:42.351Z,68.90
2023-05-06T07:40:12.488Z,68.70
2023-05-06T07:42:43.092Z,68.80
2023-05-06T07:45:15.439Z,68.70
2023-05-06T07:47:44.889Z,68.70
2023-05-06T07:50:14.175Z,68.40
2023-05-06T07:52:43.730Z,68.00
2023-05-06T07:55:13.169Z,68.30
2023-05-06T07:57:42.708Z,67.60
2023-05-06T08:00:14.451Z,67.50
2023-05-06T08:02:47.360Z,67.90
2023-05-06T08:05:17.439Z,67.20
2023-05-06T08:07:47.001Z,66.90
2023-05-06T08:10:16.204Z,66.50
2023-05-06T08:12:45.220Z,66.00
2023-05-06T08:15:15.938Z,66.50
2023-05-06T08:17:45.103Z,66.40
2023-05-06T08:20:15.044Z,65.50
2023-05-06T08:22:44.362Z,65.30
2023-05-06T08:25:13.743Z,65.20
2023-05-06T08:27:42.913Z,65.10
2023-05-06T08:30:13.235Z,65.00
2023-05-06T08:32:43.751Z,65.30
2023-05-06T08:35:13.559Z,65.50
2023-05-06T08:37:42.892Z,65.90
2023-05-06T08:40:19.282Z,66.40
2023-05-06T08:42:49.184Z,65.70
2023-05-06T08:45:20.713Z,66.10
2023-05-06T08:47:51.294Z,66.30
2023-05-06T08:50:21.336Z,66.60
2023-05-06T08:52:51.809Z,67.00
2023-05-06T08:55:22.903Z,67.50
2023-05-06T08:57:54.064Z,67.80
2023-05-06T09:00:23.300Z,67.00
2023-05-06T09:02:54.126Z,67.10
2023-05-06T09:05:23.251Z,67.10
2023-05-06T09:07:52.703Z,66.80
2023-05-06T09:10:22.019Z,66.30
2023-05-06T09:12:51.305Z,65.40
2023-05-06T09:15:25.365Z,64.40
2023-05-06T09:17:56.969Z,64.90
2023-05-06T09:20:26.157Z,64.10
2023-05-06T09:22:55.279Z,63.60
2023-05-06T09:25:24.378Z,62.00
2023-05-06T09:28:04.179Z,62.00
2023-05-06T09:30:33.705Z,62.10
2023-05-06T09:33:05.791Z,61.30
2023-05-06T09:35:39.440Z,61.20
2023-05-06T09:38:09.564Z,61.60
2023-05-06T09:40:39.950Z,61.80
2023-05-06T09:43:10.657Z,61.30
2023-05-06T09:45:40.388Z,60.70
2023-05-06T09:48:11.276Z,60.40
2023-05-06T09:50:41.258Z,60.20
2023-05-06T09:53:14.162Z,59.80
2023-05-06T09:55:43.751Z,60.20
2023-05-06T09:58:14.057Z,59.60
2023-05-06T10:00:44.384Z,59.80
2023-05-06T10:03:16.473Z,59.60
2023-05-06T10:05:47.080Z,59.70
2023-05-06T10:08:19.458Z,60.30
2023-05-06T10:10:50.633Z,59.20
2023-05-06T10:13:21.674Z,58.40
2023-05-06T10:15:51.751Z,57.50
2023-05-06T10:18:23.249Z,57.90
2023-05-06T10:20:55.357Z,57.60
2023-05-06T10:23:28.104Z,57.80
2023-05-06T10:25:58.700Z,57.90
2023-05-06T10:28:31.732Z,58.10
2023-05-06T10:31:01.615Z,58.00
2023-05-06T10:33:32.768Z,58.00
2023-05-06T10:36:12.723Z,57.20
2023-05-06T10:38:44.000Z,57.20
2023-05-06T10:41:14.458Z,57.60
2023-05-06T10:43:45.471Z,56.50
2023-05-06T10:46:16.312Z,57.00
2023-05-06T10:49:20.392Z,57.60
2023-05-06T10:52:13.400Z,57.20
2023-05-06T10:54:50.953Z,57.40
2023-05-06T10:57:22.510Z,57.60
2023-05-06T10:59:52.240Z,57.80
2023-05-06T11:02:21.735Z,56.80
2023-05-06T11:05:01.915Z,56.00
2023-05-06T11:07:32.858Z,56.70
2023-05-06T11:10:05.034Z,55.50
2023-05-06T11:12:52.565Z,55.00
2023-05-06T11:15:26.904Z,55.50
2023-05-06T11:17:57.339Z,55.30
2023-05-06T11:20:27.390Z,55.00
2023-05-06T11:22:58.134Z,54.30
2023-05-06T11:25:43.576Z,54.50
2023-05-06T11:28:14.123Z,54.60
2023-05-06T11:30:44.751Z,54.80
2023-05-06T11:33:19.889Z,54.40
2023-05-06T11:35:49.463Z,53.50
2023-05-06T11:38:20.220Z,53.10
2023-05-06T11:40:50.494Z,52.50
2023-05-06T11:43:20.429Z,52.20
2023-05-06T11:45:50.690Z,51.50
2023-05-06T11:48:20.662Z,51.10
2023-05-06T11:50:51.121Z,51.30
2023-05-06T11:53:23.026Z,50.50
2023-05-06T11:55:54.615Z,50.90
2023-05-06T11:58:30.499Z,51.20
2023-05-06T12:01:17.248Z,51.20
2023-05-06T12:03:58.583Z,49.50
2023-05-06T12:06:36.476Z,50.00
2023-05-06T12:09:09.366Z,48.50
2023-05-06T12:11:39.938Z,49.10
2023-05-06T12:14:11.145Z,48.60
2023-05-06T12:16:40.668Z,49.30
2023-05-06T12:19:10.879Z,48.50
2023-05-06T12:21:40.626Z,48.50
2023-05-06T12:24:12.493Z,48.40
2023-05-06T12:26:46.591Z,48.50
2023-05-06T12:29:18.097Z,48.60
2023-05-06T12:31:48.850Z,48.30
2023-05-06T12:34:19.357Z,48.90
2023-05-06T12:36:48.685Z,47.90
2023-05-06T12:39:19.945Z,48.30
2023-05-06T12:41:49.541Z,46.30
2023-05-06T12:44:38.056Z,46.20
2023-05-06T12:47:08.682Z,47.30
2023-05-06T12:49:48.509Z,46.70
2023-05-06T12:52:18.762Z,45.80
2023-05-06T12:54:59.868Z,46.80
2023-05-06T12:57:33.598Z,46.80
2023-05-06T13:00:07.464Z,46.30
2023-05-06T13:02:37.005Z,45.60
2023-05-06T13:05:06.727Z,45.40
2023-05-06T13:07:36.010Z,45.00
2023-05-06T13:10:07.238Z,45.30
2023-05-06T13:12:36.785Z,45.90
2023-05-06T13:15:06.774Z,46.10
2023-05-06T13:17:36.421Z,44.90
2023-05-06T13:20:07.188Z,45.20
2023-05-06T13:22:51.013Z,45.30
2023-05-06T13:25:28.988Z,45.60
2023-05-06T13:27:58.346Z,45.50
2023-05-06T13:30:32.380Z,45.60
2023-05-06T13:33:02.079Z,43.70
2023-05-06T13:35:31.631Z,44.10
2023-05-06T13:38:01.101Z,44.00
2023-05-06T13:40:31.579Z,42.60
2023-05-06T13:43:00.772Z,42.60
2023-05-06T13:45:30.112Z,42.50
2023-05-06T13:48:01.059Z,41.90
2023-05-06T13:50:30.334Z,42.20
2023-05-06T13:53:02.777Z,42.90
2023-05-06T13:55:33.341Z,42.70
2023-05-06T13:58:03.481Z,42.90
2023-05-06T14:00:33.433Z,43.70
2023-05-06T14:03:03.871Z,43.70
2023-05-06T14:05:46.894Z,43.60
2023-05-06T14:08:16.216Z,43.90
2023-05-06T14:10:47.277Z,44.00
2023-05-06T14:13:17.088Z,44.10
2023-05-06T14:15:46.641Z,44.20
2023-05-06T14:18:16.199Z,43.80
2023-05-06T14:20:45.489Z,44.30
2023-05-06T14:23:14.945Z,43.50
2023-05-06T14:25:44.200Z,44.70
2023-05-06T14:28:15.856Z,44.50
2023-05-06T14:30:45.505Z,44.20
2023-05-06T14:33:14.663Z,44.40
2023-05-06T14:35:45.993Z,44.10
2023-05-06T14:38:15.447Z,44.50
2023-05-06T14:40:44.745Z,44.30
2023-05-06T14:43:15.678Z,44.80
2023-05-06T14:45:44.914Z,45.00
2023-05-06T14:48:14.664Z,44.80
2023-05-06T14:50:43.789Z,44.70
2023-05-06T14:53:12.973Z,44.20
2023-05-06T14:55:42.431Z,44.40
2023-05-06T14:58:11.925Z,44.10
2023-05-06T15:00:43.000Z,44.10
2023-05-06T15:03:12.086Z,44.50
2023-05-06T15:05:41.303Z,44.40
2023-05-06T15:08:10.881Z,45.00
2023-05-06T15:10:40.751Z,44.90
2023-05-06T15:13:10.030Z,45.10
2023-05-06T15:15:39.401Z,45.10
2023-05-06T15:18:10.035Z,45.00
2023-05-06T15:20:40.721Z,45.30
2023-05-06T15:23:09.963Z,45.60
2023-05-06T15:25:39.194Z,45.50
2023-05-06T15:28:09.016Z,45.50
2023-05-06T15:30:38.699Z,45.60
2023-05-06T15:33:09.292Z,45.60
2023-05-06T15:35:38.339Z,45.40
2023-05-06T15:38:07.434Z,45.90
2023-05-06T15:40:36.589Z,45.90
2023-05-06T15:43:06.119Z,46.20
2023-05-06T15:45:35.312Z,46.30
2023-05-06T15:48:04.790Z,46.30
2023-05-06T15:50:37.421Z,46.30
2023-05-06T15:53:07.089Z,46.40
2023-05-06T15:55:45.070Z,46.50
2023-05-06T15:58:18.691Z,46.90
2023-05-06T16:00:47.954Z,46.70
2023-05-06T16:03:17.059Z,46.50
2023-05-06T16:05:48.008Z,46.90
2023-05-06T16:08:17.053Z,46.70
2023-05-06T16:10:46.409Z,46.70
2023-05-06T16:13:15.775Z,46.80
2023-05-06T16:15:45.810Z,47.00
2023-05-06T16:18:15.097Z,46.80
2023-05-06T16:20:44.255Z,46.80
2023-05-06T16:23:16.301Z,46.70
2023-05-06T16:25:45.427Z,46.90
2023-05-06T16:28:14.506Z,46.80
2023-05-06T16:30:44.867Z,46.70
2023-05-06T16:33:14.623Z,46.90
2023-05-06T16:35:43.708Z,47.10
2023-05-06T16:38:14.278Z,47.00
2023-05-06T16:40:47.754Z,47.20
2023-05-06T16:43:17.175Z,47.10
2023-05-06T16:45:46.744Z,46.90
2023-05-06T16:48:16.897Z,46.60
2023-05-06T16:50:46.203Z,46.80
2023-05-06T16:53:17.426Z,46.70
2023-05-06T16:55:50.439Z,46.50
2023-05-06T16:58:19.789Z,46.40
2023-05-06T17:00:49.098Z,46.40
2023-05-06T17:03:18.469Z,46.30
2023-05-06T17:05:47.873Z,45.80
2023-05-06T17:08:18.887Z,45.90
2023-05-06T17:10:48.862Z,45.90
2023-05-06T17:13:18.127Z,45.70
2023-05-06T17:15:47.510Z,46.10
2023-05-06T17:18:16.736Z,45.70
2023-05-06T17:20:54.847Z,45.60
2023-05-06T17:23:27.073Z,46.00
2023-05-06T17:25:57.347Z,45.90
2023-05-06T17:28:26.780Z,46.10
2023-05-06T17:30:57.004Z,46.10
2023-05-06T17:33:26.234Z,46.30
2023-05-06T17:35:55.759Z,46.30
2023-05-06T17:38:26.391Z,46.20
2023-05-06T17:40:59.329Z,46.40
2023-05-06T17:43:28.908Z,46.40
2023-05-06T17:45:58.269Z,46.40
2023-05-06T17:48:27.711Z,46.80
2023-05-06T17:51:01.300Z,47.00
2023-05-06T17:53:32.813Z,47.00
2023-05-06T17:56:01.899Z,46.80
2023-05-06T17:58:31.408Z,47.10
2023-05-06T18:01:00.561Z,47.20
2023-05-06T18:03:30.234Z,47.20
2023-05-06T18:05:59.986Z,47.20
2023-05-06T18:08:29.087Z,47.30
2023-05-06T18:11:00.119Z,47.70
2023-05-06T18:13:29.102Z,47.70
2023-05-06T18:15:58.174Z,47.70
2023-05-06T18:18:27.373Z,47.90
2023-05-06T18:20:57.061Z,48.00
2023-05-06T18:23:26.296Z,48.10
2023-05-06T18:25:55.444Z,48.20
2023-05-06T18:28:25.964Z,48.20
2023-05-06T18:30:55.153Z,48.30
2023-05-06T18:33:24.144Z,48.30
2023-05-06T18:35:53.051Z,48.30
2023-05-06T18:38:24.303Z,48.70
2023-05-06T18:40:53.174Z,48.80
2023-05-06T18:43:22.438Z,48.80
2023-05-06T18:45:53.225Z,48.80
2023-05-06T18:48:22.133Z,48.90
2023-05-06T18:50:53.865Z,48.70
2023-05-06T18:53:23.084Z,48.80
2023-05-06T18:55:52.184Z,48.70
2023-05-06T18:58:21.198Z,48.90
2023-05-06T19:00:50.305Z,48.80
2023-05-06T19:03:21.030Z,48.90
2023-05-06T19:05:50.081Z,48.90
2023-05-06T19:08:19.478Z,48.90
2023-05-06T19:10:48.608Z,48.90
2023-05-06T19:13:18.104Z,49.10
2023-05-06T19:15:47.494Z,49.40
2023-05-06T19:18:16.682Z,49.90
2023-05-06T19:20:47.336Z,49.50
2023-05-06T19:23:16.392Z,50.20
2023-05-06T19:25:45.255Z,50.20
2023-05-06T19:28:14.475Z,50.30
2023-05-06T19:30:43.551Z,50.40
2023-05-06T19:33:12.646Z,50.60
2023-05-06T19:35:41.613Z,50.60
2023-05-06T19:38:11.979Z,50.70
2023-05-06T19:40:41.227Z,50.90
2023-05-06T19:43:10.437Z,51.10
2023-05-06T19:45:39.848Z,51.30
2023-05-06T19:48:09.285Z,51.50
2023-05-06T19:50:38.609Z,51.70
2023-05-06T19:53:08.375Z,51.80
2023-05-06T19:55:38.986Z,51.90
2023-05-06T19:58:08.268Z,52.20
2023-05-06T20:00:38.558Z,52.10
2023-05-06T20:03:08.100Z,52.00
2023-05-06T20:05:37.517Z,52.30
2023-05-06T20:08:10.749Z,52.60
2023-05-06T20:10:41.664Z,52.70
2023-05-06T20:13:12.115Z,52.90
2023-05-06T20:15:41.582Z,53.10
2023-05-06T20:18:11.122Z,53.20
2023-05-06T20:20:40.905Z,53.30
2023-05-06T20:23:10.324Z,53.40
2023-05-06T20:25:40.998Z,53.50
2023-05-06T20:28:10.255Z,53.40
2023-05-06T20:30:39.510Z,53.50
2023-05-06T20:33:09.585Z,53.60
2023-05-06T20:35:40.498Z,53.80
2023-05-06T20:38:10.922Z,54.00
2023-05-06T20:40:41.493Z,54.20
2023-05-06T20:43:10.546Z,54.20
2023-05-06T20:45:39.886Z,54.00
2023-05-06T20:48:09.100Z,54.20
2023-05-06T20:50:38.399Z,54.40
2023-05-06T20:53:07.733Z,54.30
2023-05-06T20:55:36.951Z,54.40
2023-05-06T20:58:07.605Z,54.50
2023-05-06T21:00:36.705Z,54.70
2023-05-06T21:03:06.164Z,54.90
2023-05-06T21:05:35.690Z,55.00
2023-05-06T21:08:05.422Z,55.10
2023-05-06T21:10:34.823Z,55.30
2023-05-06T21:13:04.827Z,55.30
2023-05-06T21:15:39.873Z,55.30
2023-05-06T21:18:10.121Z,55.40
2023-05-06T21:20:39.643Z,55.30
2023-05-06T21:23:08.836Z,55.40
2023-05-06T21:25:37.832Z,55.30
2023-05-06T21:28:06.917Z,55.40
2023-05-06T21:30:38.216Z,55.40
2023-05-06T21:33:10.916Z,55.50
2023-05-06T21:35:40.794Z,55.60
2023-05-06T21:38:11.285Z,55.80
2023-05-06T21:40:40.528Z,55.90
2023-05-06T21:43:10.000Z,56.00
2023-05-06T21:45:42.328Z,56.10
2023-05-06T21:48:11.742Z,56.30
2023-05-06T21:50:41.031Z,56.30
2023-05-06T21:53:10.554Z,56.30
2023-05-06T21:55:39.847Z,56.50
2023-05-06T21:58:09.078Z,56.70
2023-05-06T22:00:38.029Z,56.70
2023-05-06T22:03:08.868Z,56.60
2023-05-06T22:05:39.998Z,56.70
2023-05-06T22:08:09.006Z,56.70
2023-05-06T22:10:38.267Z,56.70
2023-05-06T22:13:07.731Z,56.90
2023-05-06T22:15:36.764Z,57.10
2023-05-06T22:18:08.735Z,57.20
2023-05-06T22:20:39.896Z,57.30
2023-05-06T22:23:09.044Z,57.30
2023-05-06T22:25:38.400Z,57.30
2023-05-06T22:28:07.856Z,57.30
2023-05-06T22:30:37.108Z,57.40
2023-05-06T22:33:06.279Z,57.50
2023-05-06T22:35:35.298Z,57.50
2023-05-06T22:38:05.928Z,57.50
2023-05-06T22:40:35.428Z,57.50
2023-05-06T22:43:04.531Z,57.50
2023-05-06T22:45:33.493Z,57.70
2023-05-06T22:48:02.815Z,57.70
2023-05-06T22:50:31.991Z,57.80
2023-05-06T22:53:10.275Z,57.80
2023-05-06T22:55:45.410Z,57.90
2023-05-06T22:58:14.556Z,58.10
2023-05-06T23:00:47.768Z,58.30
2023-05-06T23:03:18.334Z,58.30
2023-05-06T23:05:47.519Z,58.40
2023-05-06T23:08:16.742Z,58.50
2023-05-06T23:10:47.462Z,58.20
2023-05-06T23:13:17.054Z,58.30
2023-05-06T23:15:46.753Z,58.20
2023-05-06T23:18:15.883Z,58.30
2023-05-06T23:20:45.452Z,58.30
2023-05-06T23:23:14.655Z,58.50
2023-05-06T23:25:43.717Z,58.70
2023-05-06T23:28:14.957Z,58.70
2023-05-06T23:30:44.385Z,58.80
2023-05-06T23:33:14.294Z,58.90
2023-05-06T23:35:43.520Z,58.80
2023-05-06T23:38:12.669Z,59.00
2023-05-06T23:40:41.857Z,58.80
2023-05-06T23:43:11.377Z,59.00
2023-05-06T23:45:41.859Z,59.20
2023-05-06T23:48:11.108Z,59.20
2023-05-06T23:50:40.686Z,59.20
2023-05-06T23:53:09.763Z,59.40
2023-05-06T23:55:39.070Z,59.40
2023-05-06T23:58:08.357Z,59.50
